sensor_id;sensor_type;location;lat;lon;timestamp;P1;durP1;ratioP1;P2;durP2;ratioP2
12758;SDS011;20944;47.048;15.390;2022-10-17T00:00:09;5.70;;;3.27;;
12758;SDS011;20944;47.048;15.390;2022-10-17T00:02:58;8.13;;;4.57;;
12758;SDS011;20944;47.048;15.390;2022-10-17T00:05:48;6.57;;;3.37;;
12758;SDS011;20944;47.048;15.390;2022-10-17T00:08:37;5.37;;;3.67;;
12758;SDS011;20944;47.048;15.390;2022-10-17T00:11:27;4.53;;;3.20;;
12758;SDS011;20944;47.048;15.390;2022-10-17T00:14:16;6.43;;;3.73;;
12758;SDS011;20944;47.048;15.390;2022-10-17T00:17:05;7.13;;;3.47;;
12758;SDS011;20944;47.048;15.390;2022-10-17T00:19:53;4.00;;;3.00;;
12758;SDS011;20944;47.048;15.390;2022-10-17T00:22:43;5.70;;;3.10;;
12758;SDS011;20944;47.048;15.390;2022-10-17T00:25:32;4.13;;;3.37;;
12758;SDS011;20944;47.048;15.390;2022-10-17T00:28:21;5.07;;;3.80;;
12758;SDS011;20944;47.048;15.390;2022-10-17T00:31:09;6.70;;;3.47;;
12758;SDS011;20944;47.048;15.390;2022-10-17T00:33:58;4.67;;;2.77;;
12758;SDS011;20944;47.048;15.390;2022-10-17T00:36:47;5.20;;;3.53;;
12758;SDS011;20944;47.048;15.390;2022-10-17T00:39:37;6.40;;;4.87;;
12758;SDS011;20944;47.048;15.390;2022-10-17T00:42:26;5.83;;;3.53;;
12758;SDS011;20944;47.048;15.390;2022-10-17T00:45:18;5.97;;;3.87;;
12758;SDS011;20944;47.048;15.390;2022-10-17T00:48:09;4.63;;;3.50;;
12758;SDS011;20944;47.048;15.390;2022-10-17T00:50:59;4.77;;;2.50;;
12758;SDS011;20944;47.048;15.390;2022-10-17T00:53:47;5.30;;;3.80;;
12758;SDS011;20944;47.048;15.390;2022-10-17T00:56:39;6.23;;;3.60;;
12758;SDS011;20944;47.048;15.390;2022-10-17T00:59:28;6.20;;;3.80;;
12758;SDS011;20944;47.048;15.390;2022-10-17T01:02:20;5.80;;;4.37;;
12758;SDS011;20944;47.048;15.390;2022-10-17T01:05:09;4.30;;;2.23;;
12758;SDS011;20944;47.048;15.390;2022-10-17T01:07:58;4.77;;;2.80;;
12758;SDS011;20944;47.048;15.390;2022-10-17T01:10:50;4.27;;;2.70;;
12758;SDS011;20944;47.048;15.390;2022-10-17T01:13:48;3.40;;;2.27;;
12758;SDS011;20944;47.048;15.390;2022-10-17T01:16:41;5.47;;;3.60;;
12758;SDS011;20944;47.048;15.390;2022-10-17T01:19:43;5.47;;;2.63;;
12758;SDS011;20944;47.048;15.390;2022-10-17T01:22:54;5.23;;;3.57;;
12758;SDS011;20944;47.048;15.390;2022-10-17T01:25:54;5.10;;;3.10;;
12758;SDS011;20944;47.048;15.390;2022-10-17T01:32:28;6.30;;;3.37;;
12758;SDS011;20944;47.048;15.390;2022-10-17T01:35:24;4.67;;;2.80;;
12758;SDS011;20944;47.048;15.390;2022-10-17T01:38:17;6.47;;;3.33;;
12758;SDS011;20944;47.048;15.390;2022-10-17T01:41:10;6.67;;;4.10;;
12758;SDS011;20944;47.048;15.390;2022-10-17T01:44:07;4.03;;;2.87;;
12758;SDS011;20944;47.048;15.390;2022-10-17T01:46:59;4.57;;;2.50;;
12758;SDS011;20944;47.048;15.390;2022-10-17T01:49:53;4.17;;;2.70;;
12758;SDS011;20944;47.048;15.390;2022-10-17T01:52:47;4.50;;;2.73;;
12758;SDS011;20944;47.048;15.390;2022-10-17T01:55:40;4.63;;;2.77;;
12758;SDS011;20944;47.048;15.390;2022-10-17T01:58:32;5.67;;;2.90;;
12758;SDS011;20944;47.048;15.390;2022-10-17T02:01:23;4.43;;;3.10;;
12758;SDS011;20944;47.048;15.390;2022-10-17T02:04:16;5.07;;;2.57;;
12758;SDS011;20944;47.048;15.390;2022-10-17T02:07:07;5.77;;;2.70;;
12758;SDS011;20944;47.048;15.390;2022-10-17T02:09:56;5.97;;;3.50;;
12758;SDS011;20944;47.048;15.390;2022-10-17T02:12:47;6.40;;;3.93;;
12758;SDS011;20944;47.048;15.390;2022-10-17T02:15:46;6.80;;;3.23;;
12758;SDS011;20944;47.048;15.390;2022-10-17T02:18:46;5.07;;;2.93;;
12758;SDS011;20944;47.048;15.390;2022-10-17T02:21:56;4.60;;;3.13;;
12758;SDS011;20944;47.048;15.390;2022-10-17T02:24:57;5.27;;;2.47;;
12758;SDS011;20944;47.048;15.390;2022-10-17T02:27:51;5.57;;;3.00;;
12758;SDS011;20944;47.048;15.390;2022-10-17T02:30:44;3.73;;;3.27;;
12758;SDS011;20944;47.048;15.390;2022-10-17T02:33:38;4.63;;;3.10;;
12758;SDS011;20944;47.048;15.390;2022-10-17T02:36:31;7.17;;;2.93;;
12758;SDS011;20944;47.048;15.390;2022-10-17T02:39:26;5.17;;;2.50;;
12758;SDS011;20944;47.048;15.390;2022-10-17T02:42:17;5.20;;;2.97;;
12758;SDS011;20944;47.048;15.390;2022-10-17T02:45:10;3.60;;;2.27;;
12758;SDS011;20944;47.048;15.390;2022-10-17T02:48:01;4.17;;;2.63;;
12758;SDS011;20944;47.048;15.390;2022-10-17T02:50:55;3.90;;;2.30;;
12758;SDS011;20944;47.048;15.390;2022-10-17T02:53:52;4.13;;;1.93;;
12758;SDS011;20944;47.048;15.390;2022-10-17T02:56:49;3.87;;;2.47;;
12758;SDS011;20944;47.048;15.390;2022-10-17T02:59:41;4.77;;;2.70;;
12758;SDS011;20944;47.048;15.390;2022-10-17T03:02:37;4.00;;;2.17;;
12758;SDS011;20944;47.048;15.390;2022-10-17T03:05:27;6.47;;;2.90;;
12758;SDS011;20944;47.048;15.390;2022-10-17T03:08:16;5.13;;;3.10;;
12758;SDS011;20944;47.048;15.390;2022-10-17T03:11:05;4.83;;;2.70;;
12758;SDS011;20944;47.048;15.390;2022-10-17T03:13:54;5.87;;;2.77;;
12758;SDS011;20944;47.048;15.390;2022-10-17T03:16:44;3.77;;;2.23;;
12758;SDS011;20944;47.048;15.390;2022-10-17T03:19:33;4.73;;;3.27;;
12758;SDS011;20944;47.048;15.390;2022-10-17T03:22:21;4.73;;;2.77;;
12758;SDS011;20944;47.048;15.390;2022-10-17T03:25:10;2.67;;;2.17;;
12758;SDS011;20944;47.048;15.390;2022-10-17T03:27:59;4.30;;;2.40;;
12758;SDS011;20944;47.048;15.390;2022-10-17T03:30:48;3.83;;;3.07;;
12758;SDS011;20944;47.048;15.390;2022-10-17T03:33:38;6.03;;;3.13;;
12758;SDS011;20944;47.048;15.390;2022-10-17T03:36:27;8.63;;;2.50;;
12758;SDS011;20944;47.048;15.390;2022-10-17T03:39:15;2.70;;;1.57;;
12758;SDS011;20944;47.048;15.390;2022-10-17T03:42:04;6.33;;;2.67;;
12758;SDS011;20944;47.048;15.390;2022-10-17T03:44:53;4.67;;;2.63;;
12758;SDS011;20944;47.048;15.390;2022-10-17T03:47:41;5.03;;;2.03;;
12758;SDS011;20944;47.048;15.390;2022-10-17T03:50:31;7.40;;;4.23;;
12758;SDS011;20944;47.048;15.390;2022-10-17T03:53:20;3.67;;;2.80;;
12758;SDS011;20944;47.048;15.390;2022-10-17T03:56:09;4.60;;;2.93;;
12758;SDS011;20944;47.048;15.390;2022-10-17T03:59:00;6.13;;;3.23;;
12758;SDS011;20944;47.048;15.390;2022-10-17T04:01:49;5.33;;;2.97;;
12758;SDS011;20944;47.048;15.390;2022-10-17T04:04:37;4.53;;;2.60;;
12758;SDS011;20944;47.048;15.390;2022-10-17T04:07:27;4.87;;;3.13;;
12758;SDS011;20944;47.048;15.390;2022-10-17T04:10:16;3.80;;;2.50;;
12758;SDS011;20944;47.048;15.390;2022-10-17T04:13:05;5.33;;;2.67;;
12758;SDS011;20944;47.048;15.390;2022-10-17T04:15:54;5.37;;;2.83;;
12758;SDS011;20944;47.048;15.390;2022-10-17T04:18:43;4.13;;;2.67;;
12758;SDS011;20944;47.048;15.390;2022-10-17T04:21:32;5.13;;;3.07;;
12758;SDS011;20944;47.048;15.390;2022-10-17T04:24:22;3.77;;;2.63;;
12758;SDS011;20944;47.048;15.390;2022-10-17T04:27:11;3.07;;;2.10;;
12758;SDS011;20944;47.048;15.390;2022-10-17T04:30:00;2.63;;;1.70;;
12758;SDS011;20944;47.048;15.390;2022-10-17T04:32:48;3.40;;;2.00;;
12758;SDS011;20944;47.048;15.390;2022-10-17T04:35:37;3.57;;;2.57;;
12758;SDS011;20944;47.048;15.390;2022-10-17T04:38:26;5.97;;;3.63;;
12758;SDS011;20944;47.048;15.390;2022-10-17T04:41:17;3.37;;;2.40;;
12758;SDS011;20944;47.048;15.390;2022-10-17T04:44:06;4.77;;;2.33;;
12758;SDS011;20944;47.048;15.390;2022-10-17T04:46:55;5.07;;;2.73;;
12758;SDS011;20944;47.048;15.390;2022-10-17T04:49:43;2.13;;;1.33;;
12758;SDS011;20944;47.048;15.390;2022-10-17T04:52:33;4.00;;;2.67;;
12758;SDS011;20944;47.048;15.390;2022-10-17T04:55:23;4.47;;;2.00;;
12758;SDS011;20944;47.048;15.390;2022-10-17T04:58:13;4.17;;;2.73;;
12758;SDS011;20944;47.048;15.390;2022-10-17T05:01:05;2.50;;;1.73;;
12758;SDS011;20944;47.048;15.390;2022-10-17T05:03:55;1.93;;;1.17;;
12758;SDS011;20944;47.048;15.390;2022-10-17T05:06:43;2.57;;;2.20;;
12758;SDS011;20944;47.048;15.390;2022-10-17T05:09:32;4.20;;;2.50;;
12758;SDS011;20944;47.048;15.390;2022-10-17T05:12:20;7.17;;;2.60;;
12758;SDS011;20944;47.048;15.390;2022-10-17T05:15:11;4.23;;;2.10;;
12758;SDS011;20944;47.048;15.390;2022-10-17T05:17:59;2.27;;;1.67;;
12758;SDS011;20944;47.048;15.390;2022-10-17T05:20:48;1.80;;;1.70;;
12758;SDS011;20944;47.048;15.390;2022-10-17T05:23:37;3.33;;;2.60;;
12758;SDS011;20944;47.048;15.390;2022-10-17T05:26:25;3.23;;;2.13;;
12758;SDS011;20944;47.048;15.390;2022-10-17T05:29:14;5.67;;;2.23;;
12758;SDS011;20944;47.048;15.390;2022-10-17T05:32:04;3.23;;;1.83;;
12758;SDS011;20944;47.048;15.390;2022-10-17T05:34:53;5.20;;;2.20;;
12758;SDS011;20944;47.048;15.390;2022-10-17T05:37:41;3.57;;;1.80;;
12758;SDS011;20944;47.048;15.390;2022-10-17T05:40:30;1.67;;;1.43;;
12758;SDS011;20944;47.048;15.390;2022-10-17T05:43:19;5.97;;;2.10;;
12758;SDS011;20944;47.048;15.390;2022-10-17T05:46:08;3.03;;;2.03;;
12758;SDS011;20944;47.048;15.390;2022-10-17T05:48:58;3.93;;;1.87;;
12758;SDS011;20944;47.048;15.390;2022-10-17T05:51:46;5.43;;;3.20;;
12758;SDS011;20944;47.048;15.390;2022-10-17T05:54:35;3.00;;;2.10;;
12758;SDS011;20944;47.048;15.390;2022-10-17T05:57:24;6.13;;;3.17;;
12758;SDS011;20944;47.048;15.390;2022-10-17T06:00:12;5.43;;;2.60;;
12758;SDS011;20944;47.048;15.390;2022-10-17T06:03:01;6.13;;;2.97;;
12758;SDS011;20944;47.048;15.390;2022-10-17T06:05:52;8.27;;;3.77;;
12758;SDS011;20944;47.048;15.390;2022-10-17T06:08:40;5.97;;;4.00;;
12758;SDS011;20944;47.048;15.390;2022-10-17T06:11:30;6.90;;;3.37;;
12758;SDS011;20944;47.048;15.390;2022-10-17T06:14:19;4.87;;;2.80;;
12758;SDS011;20944;47.048;15.390;2022-10-17T06:17:08;6.33;;;3.67;;
12758;SDS011;20944;47.048;15.390;2022-10-17T06:20:02;5.70;;;3.70;;
12758;SDS011;20944;47.048;15.390;2022-10-17T06:22:52;7.90;;;3.47;;
12758;SDS011;20944;47.048;15.390;2022-10-17T06:25:41;8.07;;;3.20;;
12758;SDS011;20944;47.048;15.390;2022-10-17T06:28:29;4.13;;;2.90;;
12758;SDS011;20944;47.048;15.390;2022-10-17T06:31:18;4.60;;;2.70;;
12758;SDS011;20944;47.048;15.390;2022-10-17T06:35:11;3.07;;;1.87;;
12758;SDS011;20944;47.048;15.390;2022-10-17T06:38:00;5.00;;;4.07;;
12758;SDS011;20944;47.048;15.390;2022-10-17T06:40:50;4.70;;;3.03;;
12758;SDS011;20944;47.048;15.390;2022-10-17T06:43:40;6.03;;;3.30;;
12758;SDS011;20944;47.048;15.390;2022-10-17T06:46:32;7.80;;;3.77;;
12758;SDS011;20944;47.048;15.390;2022-10-17T06:49:20;6.20;;;2.80;;
12758;SDS011;20944;47.048;15.390;2022-10-17T06:52:11;6.43;;;3.13;;
12758;SDS011;20944;47.048;15.390;2022-10-17T06:55:00;6.80;;;3.10;;
12758;SDS011;20944;47.048;15.390;2022-10-17T06:57:54;8.73;;;4.70;;
12758;SDS011;20944;47.048;15.390;2022-10-17T07:00:43;5.37;;;3.03;;
12758;SDS011;20944;47.048;15.390;2022-10-17T07:03:32;7.60;;;4.13;;
12758;SDS011;20944;47.048;15.390;2022-10-17T07:06:20;7.40;;;3.53;;
12758;SDS011;20944;47.048;15.390;2022-10-17T07:09:11;6.20;;;3.77;;
12758;SDS011;20944;47.048;15.390;2022-10-17T07:12:00;7.03;;;3.50;;
12758;SDS011;20944;47.048;15.390;2022-10-17T07:14:52;4.50;;;3.50;;
12758;SDS011;20944;47.048;15.390;2022-10-17T07:17:41;7.50;;;4.40;;
12758;SDS011;20944;47.048;15.390;2022-10-17T07:20:30;6.03;;;3.90;;
12758;SDS011;20944;47.048;15.390;2022-10-17T07:23:18;6.27;;;3.90;;
12758;SDS011;20944;47.048;15.390;2022-10-17T07:26:09;7.33;;;3.73;;
12758;SDS011;20944;47.048;15.390;2022-10-17T07:28:58;8.60;;;3.60;;
12758;SDS011;20944;47.048;15.390;2022-10-17T07:31:47;6.90;;;4.07;;
12758;SDS011;20944;47.048;15.390;2022-10-17T07:34:37;4.00;;;2.87;;
12758;SDS011;20944;47.048;15.390;2022-10-17T07:37:26;9.00;;;4.93;;
12758;SDS011;20944;47.048;15.390;2022-10-17T07:40:16;6.50;;;4.00;;
12758;SDS011;20944;47.048;15.390;2022-10-17T07:43:06;4.17;;;3.57;;
12758;SDS011;20944;47.048;15.390;2022-10-17T07:45:55;6.20;;;3.77;;
12758;SDS011;20944;47.048;15.390;2022-10-17T07:48:43;7.37;;;4.40;;
12758;SDS011;20944;47.048;15.390;2022-10-17T07:51:32;6.77;;;3.77;;
12758;SDS011;20944;47.048;15.390;2022-10-17T07:54:21;7.40;;;4.17;;
12758;SDS011;20944;47.048;15.390;2022-10-17T07:57:10;8.03;;;3.90;;
12758;SDS011;20944;47.048;15.390;2022-10-17T08:00:00;6.97;;;4.40;;
12758;SDS011;20944;47.048;15.390;2022-10-17T08:02:48;8.27;;;4.43;;
12758;SDS011;20944;47.048;15.390;2022-10-17T08:05:37;7.67;;;4.70;;
12758;SDS011;20944;47.048;15.390;2022-10-17T08:08:26;15.10;;;5.47;;
12758;SDS011;20944;47.048;15.390;2022-10-17T08:11:15;7.70;;;4.30;;
12758;SDS011;20944;47.048;15.390;2022-10-17T08:14:03;7.00;;;4.27;;
12758;SDS011;20944;47.048;15.390;2022-10-17T08:16:54;6.50;;;4.07;;
12758;SDS011;20944;47.048;15.390;2022-10-17T08:19:43;7.77;;;4.30;;
12758;SDS011;20944;47.048;15.390;2022-10-17T08:22:31;5.35;;;3.47;;
12758;SDS011;20944;47.048;15.390;2022-10-17T08:25:20;7.88;;;3.53;;
12758;SDS011;20944;47.048;15.390;2022-10-17T08:28:10;9.35;;;4.53;;
12758;SDS011;20944;47.048;15.390;2022-10-17T08:31:03;7.47;;;4.63;;
12758;SDS011;20944;47.048;15.390;2022-10-17T08:33:54;8.10;;;3.58;;
12758;SDS011;20944;47.048;15.390;2022-10-17T08:36:43;8.55;;;4.78;;
12758;SDS011;20944;47.048;15.390;2022-10-17T08:39:31;6.95;;;3.90;;
12758;SDS011;20944;47.048;15.390;2022-10-17T08:42:26;7.72;;;5.20;;
12758;SDS011;20944;47.048;15.390;2022-10-17T08:45:23;6.60;;;4.55;;
12758;SDS011;20944;47.048;15.390;2022-10-17T08:48:17;5.55;;;4.05;;
12758;SDS011;20944;47.048;15.390;2022-10-17T08:51:12;7.95;;;4.28;;
12758;SDS011;20944;47.048;15.390;2022-10-17T08:54:07;6.53;;;4.30;;
12758;SDS011;20944;47.048;15.390;2022-10-17T08:57:00;13.60;;;4.70;;
12758;SDS011;20944;47.048;15.390;2022-10-17T08:59:49;8.18;;;4.95;;
12758;SDS011;20944;47.048;15.390;2022-10-17T09:02:42;6.88;;;3.60;;
12758;SDS011;20944;47.048;15.390;2022-10-17T09:05:44;10.23;;;4.93;;
12758;SDS011;20944;47.048;15.390;2022-10-17T09:08:41;6.80;;;4.25;;
12758;SDS011;20944;47.048;15.390;2022-10-17T09:11:40;7.38;;;4.55;;
12758;SDS011;20944;47.048;15.390;2022-10-17T09:14:43;6.65;;;4.00;;
12758;SDS011;20944;47.048;15.390;2022-10-17T09:17:52;7.75;;;3.85;;
12758;SDS011;20944;47.048;15.390;2022-10-17T09:20:45;6.95;;;3.90;;
12758;SDS011;20944;47.048;15.390;2022-10-17T09:23:41;7.68;;;3.90;;
12758;SDS011;20944;47.048;15.390;2022-10-17T09:26:33;9.18;;;4.28;;
12758;SDS011;20944;47.048;15.390;2022-10-17T09:29:23;6.82;;;4.57;;
12758;SDS011;20944;47.048;15.390;2022-10-17T09:32:22;7.60;;;4.22;;
12758;SDS011;20944;47.048;15.390;2022-10-17T09:35:12;8.93;;;4.38;;
12758;SDS011;20944;47.048;15.390;2022-10-17T09:38:02;6.78;;;4.47;;
12758;SDS011;20944;47.048;15.390;2022-10-17T09:40:54;6.28;;;3.63;;
12758;SDS011;20944;47.048;15.390;2022-10-17T09:43:44;8.18;;;4.43;;
12758;SDS011;20944;47.048;15.390;2022-10-17T09:46:34;6.57;;;4.18;;
12758;SDS011;20944;47.048;15.390;2022-10-17T09:49:26;4.90;;;3.38;;
12758;SDS011;20944;47.048;15.390;2022-10-17T09:52:20;7.65;;;4.53;;
12758;SDS011;20944;47.048;15.390;2022-10-17T09:55:15;6.03;;;3.97;;
12758;SDS011;20944;47.048;15.390;2022-10-17T09:58:09;7.72;;;4.93;;
12758;SDS011;20944;47.048;15.390;2022-10-17T10:00:58;5.68;;;3.63;;
12758;SDS011;20944;47.048;15.390;2022-10-17T10:04:10;5.47;;;3.17;;
12758;SDS011;20944;47.048;15.390;2022-10-17T10:07:00;6.40;;;3.38;;
12758;SDS011;20944;47.048;15.390;2022-10-17T10:09:51;5.72;;;3.50;;
12758;SDS011;20944;47.048;15.390;2022-10-17T10:12:40;8.18;;;3.90;;
12758;SDS011;20944;47.048;15.390;2022-10-17T10:15:32;4.82;;;3.72;;
12758;SDS011;20944;47.048;15.390;2022-10-17T10:18:29;5.20;;;3.53;;
12758;SDS011;20944;47.048;15.390;2022-10-17T10:21:20;5.07;;;3.20;;
12758;SDS011;20944;47.048;15.390;2022-10-17T10:24:11;6.00;;;3.55;;
12758;SDS011;20944;47.048;15.390;2022-10-17T10:27:01;5.38;;;3.45;;
12758;SDS011;20944;47.048;15.390;2022-10-17T10:29:51;3.20;;;2.55;;
12758;SDS011;20944;47.048;15.390;2022-10-17T10:32:41;6.80;;;3.92;;
12758;SDS011;20944;47.048;15.390;2022-10-17T10:35:34;5.30;;;3.08;;
12758;SDS011;20944;47.048;15.390;2022-10-17T10:38:24;5.05;;;3.38;;
12758;SDS011;20944;47.048;15.390;2022-10-17T10:41:13;4.82;;;3.55;;
12758;SDS011;20944;47.048;15.390;2022-10-17T10:44:01;8.52;;;3.97;;
12758;SDS011;20944;47.048;15.390;2022-10-17T10:50:16;4.07;;;3.15;;
12758;SDS011;20944;47.048;15.390;2022-10-17T10:53:14;6.60;;;3.38;;
12758;SDS011;20944;47.048;15.390;2022-10-17T10:56:20;7.57;;;4.53;;
12758;SDS011;20944;47.048;15.390;2022-10-17T10:59:14;5.15;;;3.40;;
12758;SDS011;20944;47.048;15.390;2022-10-17T11:02:14;5.70;;;3.38;;
12758;SDS011;20944;47.048;15.390;2022-10-17T11:05:09;6.00;;;3.80;;
12758;SDS011;20944;47.048;15.390;2022-10-17T11:08:12;6.45;;;3.22;;
12758;SDS011;20944;47.048;15.390;2022-10-17T11:11:10;6.60;;;4.47;;
12758;SDS011;20944;47.048;15.390;2022-10-17T11:14:07;5.22;;;3.20;;
12758;SDS011;20944;47.048;15.390;2022-10-17T11:17:02;6.28;;;4.05;;
12758;SDS011;20944;47.048;15.390;2022-10-17T11:20:02;4.80;;;3.63;;
12758;SDS011;20944;47.048;15.390;2022-10-17T11:23:00;6.38;;;4.63;;
12758;SDS011;20944;47.048;15.390;2022-10-17T11:26:06;5.53;;;3.50;;
12758;SDS011;20944;47.048;15.390;2022-10-17T11:29:01;6.63;;;4.30;;
12758;SDS011;20944;47.048;15.390;2022-10-17T11:31:52;5.60;;;2.70;;
12758;SDS011;20944;47.048;15.390;2022-10-17T11:34:44;7.90;;;4.05;;
12758;SDS011;20944;47.048;15.390;2022-10-17T11:37:36;4.32;;;3.45;;
12758;SDS011;20944;47.048;15.390;2022-10-17T11:40:36;6.20;;;3.47;;
12758;SDS011;20944;47.048;15.390;2022-10-17T11:43:27;6.47;;;3.20;;
12758;SDS011;20944;47.048;15.390;2022-10-17T11:46:21;7.28;;;4.25;;
12758;SDS011;20944;47.048;15.390;2022-10-17T11:49:11;5.85;;;3.92;;
12758;SDS011;20944;47.048;15.390;2022-10-17T11:52:10;7.65;;;4.53;;
12758;SDS011;20944;47.048;15.390;2022-10-17T11:55:30;5.22;;;2.97;;
12758;SDS011;20944;47.048;15.390;2022-10-17T11:58:26;5.05;;;3.58;;
12758;SDS011;20944;47.048;15.390;2022-10-17T12:01:21;8.07;;;4.35;;
12758;SDS011;20944;47.048;15.390;2022-10-17T12:04:20;6.13;;;3.65;;
12758;SDS011;20944;47.048;15.390;2022-10-17T12:07:24;5.28;;;3.67;;
12758;SDS011;20944;47.048;15.390;2022-10-17T12:10:21;7.38;;;4.28;;
12758;SDS011;20944;47.048;15.390;2022-10-17T12:16:45;4.20;;;3.78;;
12758;SDS011;20944;47.048;15.390;2022-10-17T12:19:34;4.72;;;3.80;;
12758;SDS011;20944;47.048;15.390;2022-10-17T12:22:24;5.57;;;4.30;;
12758;SDS011;20944;47.048;15.390;2022-10-17T12:25:15;4.95;;;4.07;;
12758;SDS011;20944;47.048;15.390;2022-10-17T12:28:09;6.53;;;3.40;;
12758;SDS011;20944;47.048;15.390;2022-10-17T12:31:03;4.40;;;3.78;;
12758;SDS011;20944;47.048;15.390;2022-10-17T12:33:58;5.88;;;3.45;;
12758;SDS011;20944;47.048;15.390;2022-10-17T12:36:48;4.30;;;3.28;;
12758;SDS011;20944;47.048;15.390;2022-10-17T12:39:40;5.50;;;3.67;;
12758;SDS011;20944;47.048;15.390;2022-10-17T12:45:47;7.15;;;4.57;;
12758;SDS011;20944;47.048;15.390;2022-10-17T12:49:02;6.05;;;3.95;;
12758;SDS011;20944;47.048;15.390;2022-10-17T12:55:15;6.68;;;3.92;;
12758;SDS011;20944;47.048;15.390;2022-10-17T12:58:05;4.90;;;4.10;;
12758;SDS011;20944;47.048;15.390;2022-10-17T13:01:01;6.00;;;4.00;;
12758;SDS011;20944;47.048;15.390;2022-10-17T13:04:11;7.47;;;3.97;;
12758;SDS011;20944;47.048;15.390;2022-10-17T13:07:00;4.70;;;3.85;;
12758;SDS011;20944;47.048;15.390;2022-10-17T13:09:49;7.00;;;4.20;;
12758;SDS011;20944;47.048;15.390;2022-10-17T13:12:38;4.90;;;3.55;;
12758;SDS011;20944;47.048;15.390;2022-10-17T13:15:27;5.97;;;4.35;;
12758;SDS011;20944;47.048;15.390;2022-10-17T13:18:19;4.45;;;3.85;;
12758;SDS011;20944;47.048;15.390;2022-10-17T13:21:14;5.68;;;3.97;;
12758;SDS011;20944;47.048;15.390;2022-10-17T13:24:18;5.97;;;4.18;;
12758;SDS011;20944;47.048;15.390;2022-10-17T13:27:20;6.55;;;4.10;;
12758;SDS011;20944;47.048;15.390;2022-10-17T13:30:21;8.50;;;4.60;;
12758;SDS011;20944;47.048;15.390;2022-10-17T13:33:26;8.10;;;4.88;;
12758;SDS011;20944;47.048;15.390;2022-10-17T13:36:20;5.15;;;3.70;;
12758;SDS011;20944;47.048;15.390;2022-10-17T13:39:11;6.45;;;4.75;;
12758;SDS011;20944;47.048;15.390;2022-10-17T13:42:14;7.50;;;5.30;;
12758;SDS011;20944;47.048;15.390;2022-10-17T13:45:12;6.15;;;4.95;;
12758;SDS011;20944;47.048;15.390;2022-10-17T13:48:06;4.93;;;4.10;;
12758;SDS011;20944;47.048;15.390;2022-10-17T13:51:06;7.40;;;4.85;;
12758;SDS011;20944;47.048;15.390;2022-10-17T13:53:58;5.72;;;4.43;;
12758;SDS011;20944;47.048;15.390;2022-10-17T13:56:47;6.18;;;5.15;;
12758;SDS011;20944;47.048;15.390;2022-10-17T13:59:43;7.47;;;5.80;;
12758;SDS011;20944;47.048;15.390;2022-10-17T14:02:34;7.72;;;6.03;;
12758;SDS011;20944;47.048;15.390;2022-10-17T14:05:24;7.47;;;5.97;;
12758;SDS011;20944;47.048;15.390;2022-10-17T14:08:13;10.95;;;6.40;;
12758;SDS011;20944;47.048;15.390;2022-10-17T14:11:14;6.63;;;5.63;;
12758;SDS011;20944;47.048;15.390;2022-10-17T14:14:15;6.35;;;5.75;;
12758;SDS011;20944;47.048;15.390;2022-10-17T14:17:11;7.13;;;5.35;;
12758;SDS011;20944;47.048;15.390;2022-10-17T14:20:15;6.07;;;4.68;;
12758;SDS011;20944;47.048;15.390;2022-10-17T14:23:27;6.30;;;5.70;;
12758;SDS011;20944;47.048;15.390;2022-10-17T14:26:19;6.45;;;5.80;;
12758;SDS011;20944;47.048;15.390;2022-10-17T14:29:17;6.68;;;5.90;;
12758;SDS011;20944;47.048;15.390;2022-10-17T14:32:11;7.38;;;5.40;;
12758;SDS011;20944;47.048;15.390;2022-10-17T14:35:02;8.13;;;5.82;;
12758;SDS011;20944;47.048;15.390;2022-10-17T14:38:12;7.85;;;5.30;;
12758;SDS011;20944;47.048;15.390;2022-10-17T14:41:04;9.35;;;6.45;;
12758;SDS011;20944;47.048;15.390;2022-10-17T14:44:21;6.93;;;5.65;;
12758;SDS011;20944;47.048;15.390;2022-10-17T14:47:15;7.72;;;5.65;;
12758;SDS011;20944;47.048;15.390;2022-10-17T14:50:27;7.82;;;5.72;;
12758;SDS011;20944;47.048;15.390;2022-10-17T14:53:18;8.27;;;5.88;;
12758;SDS011;20944;47.048;15.390;2022-10-17T14:56:20;8.57;;;5.23;;
12758;SDS011;20944;47.048;15.390;2022-10-17T15:02:25;7.43;;;5.25;;
12758;SDS011;20944;47.048;15.390;2022-10-17T15:05:15;10.88;;;6.75;;
12758;SDS011;20944;47.048;15.390;2022-10-17T15:08:04;8.90;;;5.88;;
12758;SDS011;20944;47.048;15.390;2022-10-17T15:10:53;6.80;;;5.07;;
12758;SDS011;20944;47.048;15.390;2022-10-17T15:13:42;7.07;;;4.85;;
12758;SDS011;20944;47.048;15.390;2022-10-17T15:16:32;9.85;;;5.30;;
12758;SDS011;20944;47.048;15.390;2022-10-17T15:19:23;7.50;;;5.38;;
12758;SDS011;20944;47.048;15.390;2022-10-17T15:22:11;9.25;;;5.45;;
12758;SDS011;20944;47.048;15.390;2022-10-17T15:25:00;9.05;;;5.25;;
12758;SDS011;20944;47.048;15.390;2022-10-17T15:27:49;8.15;;;5.43;;
12758;SDS011;20944;47.048;15.390;2022-10-17T15:30:38;12.50;;;5.07;;
12758;SDS011;20944;47.048;15.390;2022-10-17T15:33:27;9.43;;;5.45;;
12758;SDS011;20944;47.048;15.390;2022-10-17T15:36:21;9.57;;;5.32;;
12758;SDS011;20944;47.048;15.390;2022-10-17T15:39:11;7.68;;;4.95;;
12758;SDS011;20944;47.048;15.390;2022-10-17T15:42:00;8.32;;;5.63;;
12758;SDS011;20944;47.048;15.390;2022-10-17T15:44:49;7.95;;;4.50;;
12758;SDS011;20944;47.048;15.390;2022-10-17T15:47:37;8.43;;;4.68;;
12758;SDS011;20944;47.048;15.390;2022-10-17T15:50:27;8.20;;;5.60;;
12758;SDS011;20944;47.048;15.390;2022-10-17T15:53:17;11.65;;;6.35;;
12758;SDS011;20944;47.048;15.390;2022-10-17T15:56:06;7.65;;;4.55;;
12758;SDS011;20944;47.048;15.390;2022-10-17T15:59:02;7.35;;;4.38;;
12758;SDS011;20944;47.048;15.390;2022-10-17T16:01:51;8.85;;;5.82;;
12758;SDS011;20944;47.048;15.390;2022-10-17T16:04:40;7.57;;;4.78;;
12758;SDS011;20944;47.048;15.390;2022-10-17T16:07:29;8.20;;;4.95;;
12758;SDS011;20944;47.048;15.390;2022-10-17T16:10:20;9.32;;;5.53;;
12758;SDS011;20944;47.048;15.390;2022-10-17T16:13:10;9.57;;;5.22;;
12758;SDS011;20944;47.048;15.390;2022-10-17T16:16:03;9.60;;;5.45;;
12758;SDS011;20944;47.048;15.390;2022-10-17T16:18:52;9.23;;;4.50;;
12758;SDS011;20944;47.048;15.390;2022-10-17T16:21:41;9.88;;;4.88;;
12758;SDS011;20944;47.048;15.390;2022-10-17T16:24:30;8.40;;;5.45;;
12758;SDS011;20944;47.048;15.390;2022-10-17T16:27:20;9.50;;;5.68;;
12758;SDS011;20944;47.048;15.390;2022-10-17T16:30:08;10.30;;;5.25;;
12758;SDS011;20944;47.048;15.390;2022-10-17T16:32:57;8.18;;;5.90;;
12758;SDS011;20944;47.048;15.390;2022-10-17T16:35:46;12.02;;;5.70;;
12758;SDS011;20944;47.048;15.390;2022-10-17T16:38:35;12.50;;;7.18;;
12758;SDS011;20944;47.048;15.390;2022-10-17T16:41:25;10.18;;;8.00;;
12758;SDS011;20944;47.048;15.390;2022-10-17T16:44:17;12.13;;;6.75;;
12758;SDS011;20944;47.048;15.390;2022-10-17T16:47:06;7.72;;;5.65;;
12758;SDS011;20944;47.048;15.390;2022-10-17T16:49:55;10.75;;;6.20;;
12758;SDS011;20944;47.048;15.390;2022-10-17T16:52:44;9.80;;;5.90;;
12758;SDS011;20944;47.048;15.390;2022-10-17T16:55:32;9.18;;;6.40;;
12758;SDS011;20944;47.048;15.390;2022-10-17T16:58:21;9.05;;;6.15;;
12758;SDS011;20944;47.048;15.390;2022-10-17T17:01:15;9.38;;;5.38;;
12758;SDS011;20944;47.048;15.390;2022-10-17T17:04:05;9.50;;;6.00;;
12758;SDS011;20944;47.048;15.390;2022-10-17T17:06:55;8.88;;;6.25;;
12758;SDS011;20944;47.048;15.390;2022-10-17T17:09:44;13.05;;;6.70;;
12758;SDS011;20944;47.048;15.390;2022-10-17T17:12:33;11.88;;;5.82;;
12758;SDS011;20944;47.048;15.390;2022-10-17T17:15:23;10.52;;;6.13;;
12758;SDS011;20944;47.048;15.390;2022-10-17T17:18:14;12.98;;;5.80;;
12758;SDS011;20944;47.048;15.390;2022-10-17T17:21:04;8.55;;;5.28;;